createdAt,value
2023-08-23T00:00:39.717Z,0.00
2023-08-23T00:01:39.740Z,0.00
2023-08-23T00:02:39.748Z,0.00
2023-08-23T00:03:39.730Z,0.00
2023-08-23T00:04:39.664Z,0.00
2023-08-23T00:05:39.628Z,0.00
2023-08-23T00:06:39.628Z,0.00
2023-08-23T00:07:39.612Z,0.00
2023-08-23T00:08:39.610Z,0.00
2023-08-23T00:09:39.587Z,0.00
2023-08-23T00:10:39.616Z,0.00
2023-08-23T00:11:39.565Z,0.00
2023-08-23T00:12:39.548Z,0.00
2023-08-23T00:13:39.546Z,0.00
2023-08-23T00:14:39.533Z,0.00
2023-08-23T00:15:39.540Z,0.00
2023-08-23T00:16:39.527Z,0.00
2023-08-23T00:17:39.512Z,0.00
2023-08-23T00:18:39.492Z,0.00
2023-08-23T00:19:39.505Z,0.00
2023-08-23T00:20:39.476Z,0.00
2023-08-23T00:21:39.456Z,0.00
2023-08-23T00:22:39.444Z,0.00
2023-08-23T00:23:39.433Z,0.00
2023-08-23T00:24:39.424Z,0.00
2023-08-23T00:25:39.430Z,0.00
2023-08-23T00:26:39.428Z,0.00
2023-08-23T00:27:39.414Z,0.00
2023-08-23T00:28:39.384Z,0.00
2023-08-23T00:29:39.393Z,0.00
2023-08-23T00:30:39.427Z,0.00
2023-08-23T00:31:39.355Z,0.00
2023-08-23T00:32:39.428Z,0.00
2023-08-23T00:33:39.484Z,0.00
2023-08-23T00:34:39.314Z,0.00
2023-08-23T00:35:39.320Z,0.00
2023-08-23T00:36:39.299Z,0.00
2023-08-23T00:37:39.279Z,0.00
2023-08-23T00:38:39.289Z,0.00
2023-08-23T00:39:39.279Z,0.00
2023-08-23T00:40:39.247Z,0.00
2023-08-23T00:41:39.240Z,0.00
2023-08-23T00:42:39.259Z,0.00
2023-08-23T00:43:39.211Z,0.00
2023-08-23T00:44:39.232Z,0.00
2023-08-23T00:45:39.218Z,0.00
2023-08-23T00:46:39.201Z,0.00
2023-08-23T00:47:39.230Z,0.00
2023-08-23T00:48:39.182Z,0.00
2023-08-23T00:49:39.163Z,0.00
2023-08-23T00:50:39.150Z,0.00
2023-08-23T00:51:39.145Z,0.00
2023-08-23T00:52:52.099Z,0.00
2023-08-23T00:53:40.106Z,0.00
2023-08-23T00:54:39.103Z,0.00
2023-08-23T00:55:39.094Z,0.00
2023-08-23T00:56:39.078Z,0.00
2023-08-23T00:57:39.063Z,0.00
2023-08-23T00:58:39.078Z,0.00
2023-08-23T00:59:39.043Z,0.00
2023-08-23T01:00:39.031Z,0.00
2023-08-23T01:01:39.074Z,0.00
2023-08-23T01:02:39.031Z,0.00
2023-08-23T01:03:38.997Z,0.00
2023-08-23T01:04:39.001Z,0.00
2023-08-23T01:05:39.028Z,0.00
2023-08-23T01:06:38.975Z,0.00
2023-08-23T01:07:38.947Z,0.00
2023-08-23T01:08:38.961Z,0.00
2023-08-23T01:09:38.931Z,0.00
2023-08-23T01:10:38.920Z,0.00
2023-08-23T01:11:38.979Z,0.00
2023-08-23T01:12:38.895Z,0.00
2023-08-23T01:13:38.899Z,0.00
2023-08-23T01:14:38.904Z,0.00
2023-08-23T01:15:38.872Z,0.00
2023-08-23T01:16:38.939Z,0.00
2023-08-23T01:17:38.882Z,0.00
2023-08-23T01:18:38.846Z,0.00
2023-08-23T01:19:38.834Z,0.00
2023-08-23T01:20:38.809Z,0.00
2023-08-23T01:21:38.817Z,0.00
2023-08-23T01:22:38.804Z,0.00
2023-08-23T01:23:38.777Z,0.00
2023-08-23T01:24:38.765Z,0.00
2023-08-23T01:25:38.756Z,0.00
2023-08-23T01:26:38.745Z,0.00
2023-08-23T01:27:54.563Z,0.00
2023-08-23T01:28:39.732Z,0.00
2023-08-23T01:29:38.709Z,0.00
2023-08-23T01:30:38.745Z,0.00
2023-08-23T01:31:38.722Z,0.00
2023-08-23T01:32:38.713Z,0.00
2023-08-23T01:33:38.682Z,0.00
2023-08-23T01:34:38.652Z,0.00
2023-08-23T01:35:38.642Z,0.00
2023-08-23T01:36:38.649Z,0.00
2023-08-23T01:37:38.623Z,0.00
2023-08-23T01:38:38.610Z,0.00
2023-08-23T01:39:38.603Z,0.00
2023-08-23T01:40:38.602Z,0.00
2023-08-23T01:41:38.594Z,0.00
2023-08-23T01:42:38.567Z,0.00
2023-08-23T01:43:38.569Z,0.00
2023-08-23T01:44:38.550Z,0.00
2023-08-23T01:45:38.572Z,0.00
2023-08-23T01:46:38.575Z,0.00
2023-08-23T01:47:38.563Z,0.00
2023-08-23T01:48:38.499Z,0.00
2023-08-23T01:49:38.492Z,0.00
2023-08-23T01:50:38.480Z,0.00
2023-08-23T01:51:38.479Z,0.00
2023-08-23T01:52:38.457Z,0.00
2023-08-23T01:53:38.455Z,0.00
2023-08-23T01:54:38.435Z,0.00
2023-08-23T01:55:38.422Z,0.00
2023-08-23T01:56:38.432Z,0.00
2023-08-23T01:57:38.414Z,0.00
2023-08-23T01:58:38.399Z,0.00
2023-08-23T01:59:38.383Z,0.00
2023-08-23T02:00:38.386Z,0.00
2023-08-23T02:01:38.388Z,0.00
2023-08-23T02:02:38.421Z,0.00
2023-08-23T02:03:38.416Z,0.00
2023-08-23T02:04:38.327Z,0.00
2023-08-23T02:05:38.331Z,0.00
2023-08-23T02:06:38.309Z,0.00
2023-08-23T02:07:38.293Z,0.00
2023-08-23T02:08:38.299Z,0.00
2023-08-23T02:09:38.289Z,0.00
2023-08-23T02:10:38.290Z,0.00
2023-08-23T02:11:38.249Z,0.00
2023-08-23T02:12:38.243Z,0.00
2023-08-23T02:13:38.243Z,0.00
2023-08-23T02:14:38.212Z,0.00
2023-08-23T02:15:38.261Z,0.00
2023-08-23T02:16:38.213Z,0.00
2023-08-23T02:17:38.218Z,0.00
2023-08-23T02:18:38.227Z,0.00
2023-08-23T02:19:38.161Z,0.00
2023-08-23T02:20:38.166Z,0.00
2023-08-23T02:21:38.143Z,0.00
2023-08-23T02:22:38.146Z,0.00
2023-08-23T02:23:38.131Z,0.00
2023-08-23T02:24:38.112Z,0.00
2023-08-23T02:25:38.089Z,0.00
2023-08-23T02:26:38.097Z,0.00
2023-08-23T02:27:38.081Z,0.00
2023-08-23T02:28:38.083Z,0.00
2023-08-23T02:29:38.047Z,0.00
2023-08-23T02:30:38.049Z,0.00
2023-08-23T02:31:38.085Z,0.00
2023-08-23T02:32:38.071Z,0.00
2023-08-23T02:33:38.009Z,0.00
2023-08-23T02:34:38.018Z,0.00
2023-08-23T02:35:37.987Z,0.00
2023-08-23T02:36:37.972Z,0.00
2023-08-23T02:37:37.959Z,0.00
2023-08-23T02:38:38.005Z,0.00
2023-08-23T02:39:37.945Z,0.00
2023-08-23T02:40:37.934Z,0.00
2023-08-23T02:41:37.929Z,0.00
2023-08-23T02:42:37.912Z,0.00
2023-08-23T02:43:37.917Z,0.00
2023-08-23T02:44:37.902Z,0.00
2023-08-23T02:45:37.875Z,0.00
2023-08-23T02:46:37.898Z,0.00
2023-08-23T02:47:37.871Z,0.00
2023-08-23T02:48:37.846Z,0.00
2023-08-23T02:49:37.865Z,0.00
2023-08-23T02:50:37.844Z,0.00
2023-08-23T02:51:37.808Z,0.00
2023-08-23T02:52:37.799Z,0.00
2023-08-23T02:53:37.789Z,0.00
2023-08-23T02:54:37.784Z,0.00
2023-08-23T02:55:37.837Z,0.00
2023-08-23T02:56:37.776Z,0.00
2023-08-23T02:57:37.788Z,0.00
2023-08-23T02:58:37.734Z,0.00
2023-08-23T02:59:37.738Z,0.00
2023-08-23T03:00:37.761Z,0.00
2023-08-23T03:01:37.716Z,0.00
2023-08-23T03:02:37.753Z,0.00
2023-08-23T03:03:37.679Z,0.00
2023-08-23T03:04:37.672Z,0.00
2023-08-23T03:05:37.667Z,0.00
2023-08-23T03:06:37.688Z,0.00
2023-08-23T03:07:37.637Z,0.00
2023-08-23T03:08:37.638Z,0.00
2023-08-23T03:09:37.617Z,0.00
2023-08-23T03:10:37.606Z,0.00
2023-08-23T03:11:37.600Z,0.00
2023-08-23T03:12:37.585Z,0.00
2023-08-23T03:13:37.582Z,0.00
2023-08-23T03:14:37.575Z,0.00
2023-08-23T03:15:37.552Z,0.00
2023-08-23T03:16:37.606Z,0.00
2023-08-23T03:17:37.587Z,0.00
2023-08-23T03:18:37.532Z,0.00
2023-08-23T03:19:37.508Z,0.00
2023-08-23T03:20:37.492Z,0.00
2023-08-23T03:21:37.480Z,0.00
2023-08-23T03:22:37.514Z,0.00
2023-08-23T03:23:37.478Z,0.00
2023-08-23T03:24:37.474Z,0.00
2023-08-23T03:25:37.447Z,0.00
2023-08-23T03:26:37.435Z,0.00
2023-08-23T03:27:37.418Z,0.00
2023-08-23T03:28:37.432Z,0.00
2023-08-23T03:29:37.415Z,0.00
2023-08-23T03:30:37.465Z,0.00
2023-08-23T03:31:37.393Z,0.00
2023-08-23T03:32:37.406Z,0.00
2023-08-23T03:33:37.356Z,0.00
2023-08-23T03:34:37.347Z,0.00
2023-08-23T03:35:37.354Z,0.00
2023-08-23T03:36:37.323Z,0.00
2023-08-23T03:37:37.310Z,0.00
2023-08-23T03:38:37.324Z,0.00
2023-08-23T03:39:37.290Z,0.00
2023-08-23T03:40:37.302Z,0.00
2023-08-23T03:41:37.285Z,0.00
2023-08-23T03:42:37.265Z,0.00
2023-08-23T03:43:37.243Z,0.00
2023-08-23T03:44:37.259Z,0.00
2023-08-23T03:45:37.224Z,0.00
2023-08-23T03:46:37.256Z,0.00
2023-08-23T03:47:37.217Z,0.00
2023-08-23T03:48:37.193Z,0.00
2023-08-23T03:49:37.237Z,0.00
2023-08-23T03:50:37.170Z,0.00
2023-08-23T03:51:37.163Z,0.00
2023-08-23T03:52:37.159Z,0.00
2023-08-23T03:53:37.158Z,0.00
2023-08-23T03:54:37.152Z,0.00
2023-08-23T03:55:37.127Z,0.00
2023-08-23T03:56:37.104Z,0.00
2023-08-23T03:57:37.088Z,0.00
2023-08-23T03:58:37.081Z,0.00
2023-08-23T03:59:37.090Z,0.00
2023-08-23T04:00:37.061Z,0.00
2023-08-23T04:01:37.111Z,0.00
2023-08-23T04:02:37.065Z,0.00
2023-08-23T04:03:37.185Z,0.00
2023-08-23T04:04:37.108Z,0.00
2023-08-23T04:05:37.006Z,0.00
2023-08-23T04:06:36.995Z,0.00
2023-08-23T04:07:36.992Z,0.00
2023-08-23T04:08:36.980Z,0.00
2023-08-23T04:09:37.807Z,0.00
2023-08-23T04:10:36.978Z,0.00
2023-08-23T04:11:36.953Z,0.00
2023-08-23T04:12:36.932Z,0.00
2023-08-23T04:13:36.933Z,0.00
2023-08-23T04:14:36.947Z,0.00
2023-08-23T04:15:37.391Z,0.00
2023-08-23T04:16:36.897Z,0.00
2023-08-23T04:17:36.918Z,0.00
2023-08-23T04:18:36.865Z,0.00
2023-08-23T04:19:36.861Z,0.00
2023-08-23T04:20:36.840Z,0.00
2023-08-23T04:21:36.825Z,0.00
2023-08-23T04:22:36.814Z,0.00
2023-08-23T04:23:36.819Z,0.00
2023-08-23T04:24:37.380Z,5.62
2023-08-23T04:25:36.782Z,5.62
2023-08-23T04:26:36.833Z,5.62
2023-08-23T04:27:36.779Z,5.62
2023-08-23T04:28:36.764Z,5.62
2023-08-23T04:29:36.741Z,5.62
2023-08-23T04:30:36.725Z,11.25
2023-08-23T04:31:36.732Z,11.25
2023-08-23T04:32:36.772Z,11.25
2023-08-23T04:33:36.767Z,11.25
2023-08-23T04:34:36.687Z,11.25
2023-08-23T04:35:36.690Z,16.88
2023-08-23T04:36:36.660Z,16.88
2023-08-23T04:37:36.661Z,16.88
2023-08-23T04:38:36.646Z,16.88
2023-08-23T04:39:36.637Z,16.88
2023-08-23T04:40:36.620Z,22.50
2023-08-23T04:41:36.629Z,22.50
2023-08-23T04:42:36.633Z,22.50
2023-08-23T04:43:36.586Z,22.50
2023-08-23T04:44:36.572Z,28.12
2023-08-23T04:45:36.637Z,28.12
2023-08-23T04:46:36.574Z,28.12
2023-08-23T04:47:36.624Z,28.12
2023-08-23T04:48:36.536Z,33.75
2023-08-23T04:49:36.528Z,33.75
2023-08-23T04:50:36.509Z,33.75
2023-08-23T04:51:36.503Z,33.75
2023-08-23T04:52:36.513Z,39.38
2023-08-23T04:53:36.485Z,39.38
2023-08-23T04:54:36.467Z,45.00
2023-08-23T04:55:36.452Z,45.00
2023-08-23T04:56:36.443Z,45.00
2023-08-23T04:57:36.437Z,50.62
2023-08-23T04:58:36.468Z,50.62
2023-08-23T04:59:36.426Z,50.62
2023-08-23T05:00:36.406Z,56.25
2023-08-23T05:01:36.445Z,56.25
2023-08-23T05:02:36.425Z,56.25
2023-08-23T05:03:36.370Z,61.88
2023-08-23T05:04:36.364Z,61.88
2023-08-23T05:05:36.376Z,61.88
2023-08-23T05:06:36.334Z,61.88
2023-08-23T05:07:36.332Z,61.88
2023-08-23T05:08:36.334Z,61.88
2023-08-23T05:09:36.300Z,61.88
2023-08-23T05:10:36.309Z,67.50
2023-08-23T05:11:36.293Z,67.50
2023-08-23T05:12:36.265Z,67.50
2023-08-23T05:13:36.259Z,67.50
2023-08-23T05:14:36.280Z,67.50
2023-08-23T05:15:36.247Z,61.88
2023-08-23T05:16:36.242Z,56.25
2023-08-23T05:17:38.920Z,56.25
2023-08-23T05:18:36.208Z,50.62
2023-08-23T05:19:37.430Z,45.00
2023-08-23T05:20:36.186Z,45.00
2023-08-23T05:21:36.181Z,45.00
2023-08-23T05:22:36.157Z,45.00
2023-08-23T05:23:36.150Z,50.62
2023-08-23T05:24:36.141Z,50.62
2023-08-23T05:25:36.141Z,50.62
2023-08-23T05:26:36.121Z,50.62
2023-08-23T05:27:36.109Z,50.62
2023-08-23T05:28:36.107Z,56.25
2023-08-23T05:29:36.080Z,56.25
2023-08-23T05:30:36.106Z,56.25
2023-08-23T05:31:36.136Z,61.88
2023-08-23T05:32:36.070Z,61.88
2023-08-23T05:33:36.051Z,67.50
2023-08-23T05:34:36.024Z,67.50
2023-08-23T05:35:36.015Z,73.12
2023-08-23T05:36:36.009Z,84.38
2023-08-23T05:37:35.990Z,90.00
2023-08-23T05:38:36.016Z,95.62
2023-08-23T05:39:37.610Z,101.25
2023-08-23T05:40:35.973Z,106.88
2023-08-23T05:41:35.956Z,118.12
2023-08-23T05:42:35.941Z,146.25
2023-08-23T05:43:35.932Z,168.75
2023-08-23T05:44:35.918Z,191.25
2023-08-23T05:45:35.939Z,191.25
2023-08-23T05:46:36.159Z,225.00
2023-08-23T05:47:35.918Z,303.75
2023-08-23T05:48:35.875Z,382.50
2023-08-23T05:49:35.860Z,416.25
2023-08-23T05:50:35.869Z,399.38
2023-08-23T05:51:35.839Z,421.88
2023-08-23T05:52:35.845Z,455.62
2023-08-23T05:53:35.822Z,472.50
2023-08-23T05:54:35.804Z,483.75
2023-08-23T05:55:35.800Z,483.75
2023-08-23T05:56:35.809Z,500.62
2023-08-23T05:57:35.781Z,511.88
2023-08-23T05:58:35.781Z,517.50
2023-08-23T05:59:35.757Z,528.75
2023-08-23T06:00:35.743Z,523.12
2023-08-23T06:01:35.741Z,534.38
2023-08-23T06:02:35.776Z,551.25
2023-08-23T06:03:35.739Z,556.88
2023-08-23T06:04:35.701Z,568.12
2023-08-23T06:05:35.707Z,585.00
2023-08-23T06:06:35.758Z,590.62
2023-08-23T06:07:35.667Z,585.00
2023-08-23T06:08:35.657Z,590.62
2023-08-23T06:09:35.641Z,596.25
2023-08-23T06:10:35.631Z,585.00
2023-08-23T06:11:35.639Z,590.62
2023-08-23T06:12:35.618Z,607.50
2023-08-23T06:13:35.602Z,641.25
2023-08-23T06:14:35.592Z,680.62
2023-08-23T06:15:35.589Z,697.50
2023-08-23T06:16:35.610Z,697.50
2023-08-23T06:17:35.563Z,708.75
2023-08-23T06:18:35.586Z,708.75
2023-08-23T06:19:35.552Z,708.75
2023-08-23T06:20:35.525Z,725.62
2023-08-23T06:21:35.515Z,742.50
2023-08-23T06:22:35.512Z,742.50
2023-08-23T06:23:35.516Z,787.50
2023-08-23T06:24:35.493Z,787.50
2023-08-23T06:25:35.498Z,804.38
2023-08-23T06:26:35.469Z,821.25
2023-08-23T06:27:35.450Z,826.88
2023-08-23T06:28:35.449Z,838.12
2023-08-23T06:29:35.437Z,843.75
2023-08-23T06:30:35.462Z,877.50
2023-08-23T06:31:35.417Z,877.50
2023-08-23T06:32:35.427Z,877.50
2023-08-23T06:33:35.387Z,866.25
2023-08-23T06:34:35.416Z,871.88
2023-08-23T06:35:35.370Z,905.62
2023-08-23T06:36:35.408Z,961.88
2023-08-23T06:37:35.378Z,961.88
2023-08-23T06:38:35.452Z,894.38
2023-08-23T06:39:35.318Z,978.75
2023-08-23T06:40:35.308Z,1018.12
2023-08-23T06:41:35.306Z,990.00
2023-08-23T06:42:35.301Z,1068.75
2023-08-23T06:43:35.269Z,1074.38
2023-08-23T06:44:35.260Z,1057.50
2023-08-23T06:45:35.262Z,1051.88
2023-08-23T06:46:35.257Z,1147.50
2023-08-23T06:47:35.272Z,1091.25
2023-08-23T06:48:35.217Z,1046.25
2023-08-23T06:49:35.194Z,1119.38
2023-08-23T06:50:35.263Z,1237.50
2023-08-23T06:51:35.177Z,1321.88
2023-08-23T06:52:35.172Z,1248.75
2023-08-23T06:53:36.617Z,1141.88
2023-08-23T06:54:35.159Z,1096.88
2023-08-23T06:55:35.131Z,1125.00
2023-08-23T06:56:35.116Z,1248.75
2023-08-23T06:57:35.110Z,1338.75
2023-08-23T06:58:35.105Z,1237.50
2023-08-23T06:59:35.089Z,1158.75
2023-08-23T07:00:35.117Z,1141.88
2023-08-23T07:01:35.065Z,1226.25
2023-08-23T07:02:35.135Z,1237.50
2023-08-23T07:03:35.205Z,1299.38
2023-08-23T07:04:35.071Z,1344.38
2023-08-23T07:05:35.105Z,1327.50
2023-08-23T07:06:35.049Z,1366.88
2023-08-23T07:07:35.022Z,1361.25
2023-08-23T07:08:34.994Z,1260.00
2023-08-23T07:09:35.002Z,1265.62
2023-08-23T07:10:34.977Z,1316.25
2023-08-23T07:11:34.962Z,1293.75
2023-08-23T07:12:34.947Z,1248.75
2023-08-23T07:13:34.949Z,1271.25
2023-08-23T07:14:34.977Z,1355.62
2023-08-23T07:15:34.928Z,1338.75
2023-08-23T07:16:34.953Z,1355.62
2023-08-23T07:17:34.940Z,1372.50
2023-08-23T07:18:34.891Z,1417.50
2023-08-23T07:19:34.875Z,1372.50
2023-08-23T07:20:34.882Z,1338.75
2023-08-23T07:21:34.853Z,1372.50
2023-08-23T07:22:34.873Z,1366.88
2023-08-23T07:23:34.837Z,1389.38
2023-08-23T07:24:34.828Z,1653.75
2023-08-23T07:25:34.827Z,1631.25
2023-08-23T07:26:34.798Z,1485.00
2023-08-23T07:27:34.792Z,1507.50
2023-08-23T07:28:34.782Z,1518.75
2023-08-23T07:29:34.773Z,1451.25
2023-08-23T07:30:34.802Z,1479.38
2023-08-23T07:31:34.748Z,1468.12
2023-08-23T07:32:34.756Z,1485.00
2023-08-23T07:33:34.729Z,1518.75
2023-08-23T07:34:34.733Z,1507.50
2023-08-23T07:35:34.716Z,1473.75
2023-08-23T07:36:34.690Z,1530.00
2023-08-23T07:37:34.692Z,1541.25
2023-08-23T07:38:34.707Z,1366.88
2023-08-23T07:39:34.657Z,1535.62
2023-08-23T07:40:34.675Z,1586.25
2023-08-23T07:41:34.644Z,1563.75
2023-08-23T07:42:34.655Z,1614.38
2023-08-23T07:43:34.643Z,1760.62
2023-08-23T07:44:34.634Z,1659.38
2023-08-23T07:45:34.666Z,1704.38
2023-08-23T07:46:34.635Z,1771.88
2023-08-23T07:47:34.579Z,1591.88
2023-08-23T07:48:34.604Z,1524.38
2023-08-23T07:49:34.554Z,1755.00
2023-08-23T07:50:34.539Z,1755.00
2023-08-23T07:51:34.551Z,1580.62
2023-08-23T07:52:34.526Z,1068.75
2023-08-23T07:53:34.518Z,1625.62
2023-08-23T07:54:34.533Z,1788.75
2023-08-23T07:55:34.489Z,1659.38
2023-08-23T07:56:34.480Z,1507.50
2023-08-23T07:57:34.497Z,1648.12
2023-08-23T07:58:34.460Z,1659.38
2023-08-23T07:59:34.483Z,1732.50
2023-08-23T08:00:34.436Z,1805.62
2023-08-23T08:01:34.470Z,1738.12
2023-08-23T08:02:34.484Z,1715.62
2023-08-23T08:03:34.438Z,1873.12
2023-08-23T08:04:34.949Z,1856.25
2023-08-23T08:05:34.390Z,1805.62
2023-08-23T08:06:34.396Z,1766.25
2023-08-23T08:08:01.376Z,933.75
2023-08-23T08:08:35.356Z,1845.00
2023-08-23T08:09:34.353Z,1856.25
2023-08-23T08:10:34.352Z,1822.50
2023-08-23T08:11:34.318Z,1524.38
2023-08-23T08:12:34.311Z,1918.12
2023-08-23T08:13:34.303Z,2002.50
2023-08-23T08:14:34.296Z,2047.50
2023-08-23T08:15:34.288Z,1957.50
2023-08-23T08:16:34.326Z,1867.50
2023-08-23T08:18:34.260Z,1833.75
2023-08-23T08:19:34.247Z,1800.00
2023-08-23T08:20:34.232Z,1811.25
2023-08-23T08:21:34.210Z,855.00
2023-08-23T08:22:34.200Z,1850.62
2023-08-23T08:23:34.214Z,2036.25
2023-08-23T08:24:34.183Z,2019.38
2023-08-23T08:25:34.203Z,1918.12
2023-08-23T08:26:34.189Z,1816.88
2023-08-23T08:27:34.146Z,1833.75
2023-08-23T08:28:34.142Z,2098.12
2023-08-23T08:29:34.127Z,2160.00
2023-08-23T08:30:34.126Z,1119.38
2023-08-23T08:31:34.142Z,495.00
2023-08-23T08:32:34.202Z,804.38
2023-08-23T08:33:34.081Z,2002.50
2023-08-23T08:34:34.083Z,1951.88
2023-08-23T08:35:34.057Z,1974.38
2023-08-23T08:36:34.052Z,1985.62
2023-08-23T08:37:34.048Z,2041.88
2023-08-23T08:38:34.032Z,2019.38
2023-08-23T08:39:34.038Z,1929.38
2023-08-23T08:40:34.002Z,2041.88
2023-08-23T08:41:33.993Z,2030.62
2023-08-23T08:42:34.007Z,2047.50
2023-08-23T08:43:33.983Z,2306.25
2023-08-23T08:44:33.961Z,2210.62
2023-08-23T08:45:33.978Z,1980.00
2023-08-23T08:46:33.944Z,2025.00
2023-08-23T08:47:33.969Z,2013.75
2023-08-23T08:48:33.918Z,1991.25
2023-08-23T08:49:33.908Z,2221.88
2023-08-23T08:50:33.921Z,2013.75
2023-08-23T08:51:33.889Z,624.38
2023-08-23T08:52:33.873Z,2103.75
2023-08-23T08:53:33.888Z,2300.62
2023-08-23T08:54:33.855Z,1203.75
2023-08-23T08:55:33.845Z,669.38
2023-08-23T08:56:33.849Z,2193.75
2023-08-23T08:57:33.824Z,2036.25
2023-08-23T08:58:33.871Z,2205.00
2023-08-23T08:59:33.820Z,2340.00
2023-08-23T09:00:33.922Z,2193.75
2023-08-23T09:01:33.861Z,2092.50
2023-08-23T09:02:33.762Z,2154.38
2023-08-23T09:03:33.817Z,793.12
2023-08-23T09:04:33.744Z,2165.62
2023-08-23T09:05:33.732Z,1631.25
2023-08-23T09:06:33.727Z,1878.75
2023-08-23T09:07:33.719Z,2064.38
2023-08-23T09:08:33.700Z,2148.75
2023-08-23T09:09:33.703Z,2266.88
2023-08-23T09:10:33.676Z,2463.75
2023-08-23T09:11:33.668Z,2458.12
2023-08-23T09:12:33.657Z,2435.62
2023-08-23T09:13:33.680Z,2430.00
2023-08-23T09:14:33.672Z,2486.25
2023-08-23T09:15:33.669Z,2323.12
2023-08-23T09:16:33.618Z,2328.75
2023-08-23T09:17:33.659Z,781.88
2023-08-23T09:18:33.588Z,2666.25
2023-08-23T09:19:33.578Z,2716.88
2023-08-23T09:20:33.583Z,2508.75
2023-08-23T09:21:33.561Z,2626.88
2023-08-23T09:22:33.546Z,2643.75
2023-08-23T09:23:33.535Z,2480.62
2023-08-23T09:24:33.528Z,2508.75
2023-08-23T09:25:33.521Z,2761.88
2023-08-23T09:26:33.516Z,2857.50
2023-08-23T09:27:37.308Z,2790.00
2023-08-23T09:28:33.480Z,2559.38
2023-08-23T09:29:33.480Z,2446.88
2023-08-23T09:30:33.509Z,2266.88
2023-08-23T09:31:33.470Z,2345.62
2023-08-23T09:32:33.544Z,2638.12
2023-08-23T09:33:33.429Z,2559.38
2023-08-23T09:34:33.429Z,2660.62
2023-08-23T09:35:33.420Z,2598.75
2023-08-23T09:36:33.394Z,2452.50
2023-08-23T09:37:33.381Z,2587.50
2023-08-23T09:38:33.374Z,2373.75
2023-08-23T09:39:33.397Z,2176.88
2023-08-23T09:40:33.367Z,2362.50
2023-08-23T09:41:33.601Z,2418.75
2023-08-23T09:42:33.348Z,2362.50
2023-08-23T09:43:33.321Z,2351.25
2023-08-23T09:44:33.360Z,2345.62
2023-08-23T09:45:33.308Z,2311.88
2023-08-23T09:46:33.433Z,2171.25
2023-08-23T09:47:33.418Z,2115.00
2023-08-23T09:48:33.300Z,2098.12
2023-08-23T09:49:33.257Z,2160.00
2023-08-23T09:50:33.252Z,2199.38
2023-08-23T09:51:33.254Z,2171.25
2023-08-23T09:52:33.227Z,2317.50
2023-08-23T09:53:33.215Z,2362.50
2023-08-23T09:54:43.708Z,2323.12
2023-08-23T09:55:34.206Z,2424.38
2023-08-23T09:56:33.182Z,2351.25
2023-08-23T09:57:33.175Z,2356.88
2023-08-23T09:58:33.172Z,1856.25
2023-08-23T09:59:33.150Z,2660.62
2023-08-23T10:00:33.158Z,2317.50
2023-08-23T10:01:34.027Z,1085.62
2023-08-23T10:02:33.226Z,1687.50
2023-08-23T10:03:33.136Z,2362.50
2023-08-23T10:04:33.097Z,2328.75
2023-08-23T10:05:33.102Z,1783.12
2023-08-23T10:06:33.078Z,534.38
2023-08-23T10:07:33.059Z,2407.50
2023-08-23T10:08:33.047Z,630.00
2023-08-23T10:09:33.049Z,568.12
2023-08-23T10:10:33.026Z,2863.12
2023-08-23T10:11:42.069Z,2902.50
2023-08-23T10:12:34.005Z,2925.00
2023-08-23T10:13:33.003Z,534.38
2023-08-23T10:14:32.980Z,2565.00
2023-08-23T10:15:33.030Z,2626.88
2023-08-23T10:16:32.985Z,2711.25
2023-08-23T10:17:32.970Z,2621.25
2023-08-23T10:18:32.980Z,2396.25
2023-08-23T10:19:32.935Z,2480.62
2023-08-23T10:20:32.930Z,2593.12
2023-08-23T10:21:32.918Z,2694.38
2023-08-23T10:22:36.014Z,2716.88
2023-08-23T10:23:32.941Z,2013.75
2023-08-23T10:24:32.978Z,2435.62
2023-08-23T10:25:32.872Z,2295.00
2023-08-23T10:26:32.909Z,2593.12
2023-08-23T10:27:32.917Z,2761.88
2023-08-23T10:28:34.246Z,787.50
2023-08-23T10:29:32.905Z,2896.88
2023-08-23T10:30:32.810Z,2925.00
2023-08-23T10:31:32.815Z,1957.50
2023-08-23T10:32:32.802Z,2452.50
2023-08-23T10:33:32.927Z,2306.25
2023-08-23T10:34:32.788Z,2266.88
2023-08-23T10:35:32.762Z,2548.12
2023-08-23T10:36:32.751Z,815.62
2023-08-23T10:37:32.747Z,579.38
2023-08-23T10:38:32.714Z,669.38
2023-08-23T10:39:32.715Z,556.88
2023-08-23T10:40:32.700Z,450.00
2023-08-23T10:41:32.692Z,444.38
2023-08-23T10:42:32.676Z,461.25
2023-08-23T10:43:32.677Z,860.62
2023-08-23T10:44:32.653Z,1366.88
2023-08-23T10:45:32.642Z,2295.00
2023-08-23T10:46:32.675Z,871.88
2023-08-23T10:47:32.685Z,534.38
2023-08-23T10:48:32.637Z,2784.38
2023-08-23T10:49:32.617Z,2525.62
2023-08-23T10:50:32.612Z,2475.00
2023-08-23T10:51:32.577Z,500.62
2023-08-23T10:52:32.565Z,686.25
2023-08-23T10:53:32.558Z,759.38
2023-08-23T10:54:32.542Z,1231.88
2023-08-23T10:55:32.574Z,1091.25
2023-08-23T10:56:32.526Z,1428.75
2023-08-23T10:57:32.520Z,2424.38
2023-08-23T10:58:32.498Z,753.75
2023-08-23T10:59:32.488Z,523.12
2023-08-23T11:00:32.488Z,1310.62
2023-08-23T11:01:32.546Z,765.00
2023-08-23T11:02:32.516Z,2700.00
2023-08-23T11:03:32.473Z,2683.12
2023-08-23T11:04:32.442Z,2643.75
2023-08-23T11:05:32.468Z,2525.62
2023-08-23T11:06:32.451Z,1501.88
2023-08-23T11:07:32.418Z,528.75
2023-08-23T11:08:32.536Z,2491.88
2023-08-23T11:09:32.394Z,2401.88
2023-08-23T11:10:32.401Z,2362.50
2023-08-23T11:11:32.361Z,2266.88
2023-08-23T11:12:32.357Z,2182.50
2023-08-23T11:13:32.335Z,2362.50
2023-08-23T11:14:32.328Z,2452.50
2023-08-23T11:15:32.328Z,2610.00
2023-08-23T11:16:32.331Z,956.25
2023-08-23T11:17:32.293Z,551.25
2023-08-23T11:18:32.290Z,2632.50
2023-08-23T11:19:32.279Z,1006.88
2023-08-23T11:20:32.307Z,2441.25
2023-08-23T11:21:32.256Z,2660.62
2023-08-23T11:22:32.271Z,2694.38
2023-08-23T11:23:32.232Z,2638.12
2023-08-23T11:24:32.235Z,2784.38
2023-08-23T11:25:32.221Z,2610.00
2023-08-23T11:26:32.208Z,2542.50
2023-08-23T11:27:32.186Z,1507.50
2023-08-23T11:28:32.188Z,1631.25
2023-08-23T11:29:32.175Z,2250.00
2023-08-23T11:30:32.173Z,2193.75
2023-08-23T11:31:32.189Z,2289.38
2023-08-23T11:32:32.167Z,2446.88
2023-08-23T11:33:32.124Z,2520.00
2023-08-23T11:34:32.110Z,2542.50
2023-08-23T11:35:32.117Z,2278.12
2023-08-23T11:36:32.090Z,2109.38
2023-08-23T11:37:32.092Z,2272.50
2023-08-23T11:38:32.095Z,646.88
2023-08-23T11:39:32.059Z,725.62
2023-08-23T11:40:32.047Z,1237.50
2023-08-23T11:41:32.044Z,2013.75
2023-08-23T11:42:32.041Z,1366.88
2023-08-23T11:43:32.014Z,1018.12
2023-08-23T11:44:32.019Z,1878.75
2023-08-23T11:45:32.014Z,2497.50
2023-08-23T11:46:32.047Z,2424.38
2023-08-23T11:47:31.999Z,2345.62
2023-08-23T11:48:31.963Z,2058.75
2023-08-23T11:49:31.976Z,1912.50
2023-08-23T11:50:31.941Z,2176.88
2023-08-23T11:51:31.931Z,1625.62
2023-08-23T11:52:31.916Z,1051.88
2023-08-23T11:53:31.906Z,618.75
2023-08-23T11:54:31.949Z,2160.00
2023-08-23T11:55:31.911Z,2300.62
2023-08-23T11:56:31.907Z,2418.75
2023-08-23T11:57:31.865Z,2300.62
2023-08-23T11:58:31.909Z,2176.88
2023-08-23T11:59:31.858Z,2109.38
2023-08-23T12:00:31.902Z,2070.00
2023-08-23T12:01:31.898Z,1968.75
2023-08-23T12:02:31.925Z,1923.75
2023-08-23T12:03:31.891Z,1963.12
2023-08-23T12:04:31.792Z,1991.25
2023-08-23T12:05:31.795Z,1968.75
2023-08-23T12:06:31.774Z,2058.75
2023-08-23T12:07:31.773Z,1845.00
2023-08-23T12:08:31.744Z,495.00
2023-08-23T12:09:31.737Z,545.62
2023-08-23T12:10:31.784Z,787.50
2023-08-23T12:11:31.722Z,1147.50
2023-08-23T12:12:31.710Z,2199.38
2023-08-23T12:13:31.721Z,1141.88
2023-08-23T12:14:31.679Z,2126.25
2023-08-23T12:15:31.676Z,2047.50
2023-08-23T12:16:31.693Z,2058.75
2023-08-23T12:17:31.659Z,2064.38
2023-08-23T12:18:31.660Z,1074.38
2023-08-23T12:19:32.213Z,2008.12
2023-08-23T12:20:31.627Z,624.38
2023-08-23T12:21:31.598Z,2075.62
2023-08-23T12:22:31.587Z,900.00
2023-08-23T12:23:31.724Z,466.88
2023-08-23T12:24:31.565Z,2064.38
2023-08-23T12:25:32.592Z,1991.25
2023-08-23T12:26:31.589Z,1951.88
2023-08-23T12:27:31.546Z,472.50
2023-08-23T12:28:31.525Z,2340.00
2023-08-23T12:29:31.515Z,562.50
2023-08-23T12:30:31.509Z,1406.25
2023-08-23T12:31:31.511Z,1085.62
2023-08-23T12:32:31.559Z,455.62
2023-08-23T12:33:31.486Z,399.38
2023-08-23T12:34:31.462Z,382.50
2023-08-23T12:35:31.453Z,365.62
2023-08-23T12:36:31.443Z,455.62
2023-08-23T12:37:31.449Z,466.88
2023-08-23T12:38:31.415Z,2092.50